Time;durP1;ratioP1;P1;durP2;ratioP2;P2;SDS_P1;SDS_P2;PMS_P1;PMS_P2;Temp;Humidity;BMP_temperature;BMP_pressure;BME280_temperature;BME280_humidity;BME280_pressure;Samples;Min_cycle;Max_cycle;Signal;HPM_P1;HPM_P2
2022/03/13 00:00:17;;;;;;;11.65;6.28;;;;;;;1.06;65.18;99663.56;5156720;27;20039;-95
2022/03/13 00:02:45;;;;;;;9.98;5.53;;;;;;;1.24;64.49;99685.00;5136357;28;20083;-95
2022/03/13 00:05:16;;;;;;;11.20;7.03;;;;;;;1.00;65.40;99659.09;5135963;28;20584;-94
2022/03/13 00:07:42;;;;;;;10.40;5.85;;;;;;;0.93;65.38;99658.03;5136256;28;20062;-94
2022/03/13 00:10:09;;;;;;;11.40;6.18;;;;;;;0.82;66.62;99656.84;5137687;28;20137;-95
2022/03/13 00:12:35;;;;;;;12.10;6.65;;;;;;;0.70;67.33;99649.56;5136625;28;20043;-94
2022/03/13 00:15:09;;;;;;;10.57;6.50;;;;;;;0.54;68.51;99650.91;5137426;28;20113;-94
2022/03/13 00:17:35;;;;;;;11.15;6.15;;;;;;;0.53;68.53;99650.84;5135402;28;20047;-96
2022/03/13 00:20:05;;;;;;;10.77;5.88;;;;;;;0.40;68.63;99647.88;5129432;28;20044;-94
2022/03/13 00:22:31;;;;;;;;;;;;;;;0.58;68.92;99688.50;5122447;28;20056;-94
2022/03/13 00:24:59;;;;;;;10.38;5.57;;;;;;;0.32;69.30;99653.75;5120298;28;19926;-94
2022/03/13 00:27:25;;;;;;;11.98;6.28;;;;;;;0.22;69.44;99655.25;5120168;28;20043;-96
2022/03/13 00:29:52;;;;;;;9.30;5.88;;;;;;;0.13;70.45;99657.56;5120470;28;20040;-95
2022/03/13 00:32:20;;;;;;;9.98;5.93;;;;;;;0.04;69.92;99645.13;5120190;28;20043;-94
2022/03/13 00:34:45;;;;;;;11.63;5.78;;;;;;;0.10;70.17;99658.38;5120429;28;20079;-94
2022/03/13 00:37:11;;;;;;;15.40;6.43;;;;;;;0.12;69.92;99661.91;5119079;28;20527;-94
2022/03/13 00:39:40;;;;;;;11.80;6.40;;;;;;;0.04;70.02;99647.72;5118788;28;20051;-93
2022/03/13 00:42:07;;;;;;;11.95;6.43;;;;;;;-0.09;70.80;99632.53;5119328;28;20097;-95
2022/03/13 00:44:33;;;;;;;11.68;6.30;;;;;;;-0.08;70.40;99631.69;5120092;28;20048;-94
2022/03/13 00:46:59;;;;;;;10.55;5.65;;;;;;;-0.07;70.95;99639.56;5121855;28;20040;-95
2022/03/13 00:49:27;;;;;;;11.57;6.78;;;;;;;-0.03;70.80;99636.22;5121195;28;20508;-94
2022/03/13 00:51:52;;;;;;;11.85;6.60;;;;;;;0.15;70.20;99656.78;5120221;28;20147;-93
2022/03/13 00:54:18;;;;;;;12.02;6.35;;;;;;;0.28;69.64;99659.75;5119289;28;20059;-95
2022/03/13 00:56:44;;;;;;;12.38;6.38;;;;;;;0.27;69.67;99650.13;5119514;28;20054;-93
2022/03/13 00:59:10;;;;;;;11.07;6.45;;;;;;;0.33;69.22;99659.03;5119353;28;20397;-94
2022/03/13 01:01:36;;;;;;;11.45;6.72;;;;;;;0.36;69.32;99663.47;5119546;28;20047;-93
2022/03/13 01:04:02;;;;;;;11.00;6.57;;;;;;;0.18;70.63;99649.03;5119216;28;20040;-94
2022/03/13 01:06:29;;;;;;;13.38;6.47;;;;;;;0.02;71.24;99638.06;5121803;28;20027;-93
2022/03/13 01:08:55;;;;;;;11.15;6.13;;;;;;;0.08;71.52;99657.44;5121148;28;20048;-94
2022/03/13 01:11:23;;;;;;;11.13;5.82;;;;;;;-0.10;71.68;99647.34;5121569;28;20070;-93
2022/03/13 01:13:50;;;;;;;12.15;6.43;;;;;;;-0.09;72.37;99648.22;5122411;28;20079;-94
2022/03/13 01:16:17;;;;;;;13.50;5.93;;;;;;;-0.25;71.71;99629.47;5119609;28;20229;-94
2022/03/13 01:18:46;;;;;;;12.38;6.13;;;;;;;-0.25;72.20;99639.91;5118411;28;20084;-95
2022/03/13 01:21:12;;;;;;;12.82;6.40;;;;;;;-0.26;71.92;99638.16;5118428;28;20043;-92
2022/03/13 01:23:40;;;;;;;11.65;7.00;;;;;;;-0.12;70.50;99630.72;5118617;28;20048;-94
2022/03/13 01:26:38;;;;;;;12.60;5.82;;;;;;;0.16;70.38;99662.91;5118227;28;20047;-94
2022/03/13 01:29:06;;;;;;;12.85;6.13;;;;;;;0.04;70.12;99636.38;5118935;28;20040;-93
2022/03/13 01:31:34;;;;;;;10.13;5.43;;;;;;;0.08;69.98;99627.78;5118866;28;20054;-94
2022/03/13 01:34:01;;;;;;;10.82;5.68;;;;;;;0.08;69.39;99636.53;5120681;28;20067;-93
2022/03/13 01:36:27;;;;;;;9.73;6.00;;;;;;;0.14;69.78;99659.34;5120312;28;20118;-94
2022/03/13 01:38:57;;;;;;;9.98;5.78;;;;;;;-0.05;70.32;99631.78;5121287;28;20032;-94
2022/03/13 01:41:24;;;;;;;12.75;6.00;;;;;;;-0.22;71.62;99631.28;5120582;28;20070;-95
2022/03/13 01:43:50;;;;;;;12.85;6.05;;;;;;;-0.34;71.41;99628.31;5121981;28;20063;-95
2022/03/13 01:46:17;;;;;;;11.07;6.88;;;;;;;-0.51;73.25;99626.06;5123041;28;20047;-94
2022/03/13 01:48:52;;;;;;;11.63;6.93;;;;;;;-0.49;73.69;99626.13;5122733;28;20040;-95
2022/03/13 01:51:18;;;;;;;11.30;6.20;;;;;;;-0.48;73.49;99628.78;5122994;28;20080;-96
2022/03/13 01:53:44;;;;;;;10.88;6.30;;;;;;;-0.56;74.26;99626.78;5123494;28;20039;-95
2022/03/13 01:56:12;;;;;;;12.48;6.50;;;;;;;-0.65;74.62;99617.81;5123371;28;20176;-95
2022/03/13 01:58:38;;;;;;;10.70;6.18;;;;;;;-0.66;74.45;99616.03;5123134;28;20127;-95
2022/03/13 02:01:04;;;;;;;12.48;6.63;;;;;;;-0.51;75.37;99640.84;5122401;28;20099;-95
2022/03/13 02:03:30;;;;;;;13.82;6.50;;;;;;;-0.75;74.86;99609.63;5121298;28;20054;-95
2022/03/13 02:05:57;;;;;;;9.07;5.45;;;;;;;-0.81;75.24;99615.53;5122491;28;20036;-95
2022/03/13 02:08:23;;;;;;;11.48;6.20;;;;;;;-0.73;75.65;99636.69;5122852;28;20048;-95
2022/03/13 02:10:49;;;;;;;13.50;7.10;;;;;;;-0.84;76.06;99623.28;5124209;28;20054;-94
2022/03/13 02:13:19;;;;;;;10.93;5.97;;;;;;;-0.93;76.21;99609.91;5121829;28;20039;-95
2022/03/13 02:15:45;;;;;;;9.85;6.05;;;;;;;-0.95;77.18;99617.72;5122479;28;20046;-95
2022/03/13 02:18:11;;;;;;;10.98;6.35;;;;;;;-1.08;77.00;99611.19;5122513;28;20043;-95
2022/03/13 02:20:40;;;;;;;11.18;6.05;;;;;;;-1.12;76.63;99609.31;5123158;28;20047;-94
2022/03/13 02:23:15;;;;;;;11.07;6.40;;;;;;;-1.13;76.21;99607.56;5123037;28;20035;-94
2022/03/13 02:25:41;;;;;;;13.38;7.07;;;;;;;-1.17;77.86;99610.91;5123872;28;20557;-94
2022/03/13 02:28:07;;;;;;;16.42;7.40;;;;;;;-1.26;78.53;99610.56;5123988;28;20069;-95
2022/03/13 02:30:34;;;;;;;12.07;6.63;;;;;;;-1.16;78.72;99625.72;5122855;28;20051;-95
2022/03/13 02:33:01;;;;;;;12.35;7.00;;;;;;;-1.27;78.79;99614.91;5123731;28;20039;-95
2022/03/13 02:35:29;;;;;;;13.60;6.88;;;;;;;-1.33;78.91;99601.66;5124048;28;20059;-95
2022/03/13 02:37:55;;;;;;;10.45;6.50;;;;;;;-1.34;78.79;99594.69;5123890;28;20115;-95
2022/03/13 02:40:25;;;;;;;12.00;6.65;;;;;;;-1.33;79.46;99603.38;5123561;28;20044;-95
2022/03/13 02:42:52;;;;;;;11.35;6.07;;;;;;;-1.37;79.03;99597.16;5121704;28;20097;-94
2022/03/13 02:45:28;;;;;;;12.00;6.80;;;;;;;-1.40;79.51;99602.28;5122888;28;20043;-95
2022/03/13 02:47:54;;;;;;;9.95;5.93;;;;;;;-1.40;79.73;99601.41;5123499;28;20047;-95
2022/03/13 02:50:21;;;;;;;10.30;5.80;;;;;;;-1.40;79.46;99604.03;5123983;28;20163;-94
2022/03/13 02:52:47;;;;;;;9.18;5.97;;;;;;;-1.39;78.62;99600.56;5124527;28;20070;-94
2022/03/13 02:55:13;;;;;;;11.40;6.10;;;;;;;-1.43;78.87;99602.22;5124333;28;20054;-95
2022/03/13 02:57:41;;;;;;;11.13;6.30;;;;;;;-1.40;79.63;99612.72;5122975;28;20036;-94
2022/03/13 03:00:08;;;;;;;9.38;5.68;;;;;;;-1.54;79.54;99599.22;5123154;28;20501;-94
2022/03/13 03:02:35;;;;;;;11.38;6.22;;;;;;;-1.55;79.55;99596.56;5122643;28;20044;-94
2022/03/13 03:05:03;;;;;;;9.88;6.03;;;;;;;-1.40;78.83;99630.13;5124580;28;20043;-96
2022/03/13 03:07:29;;;;;;;12.10;6.03;;;;;;;-1.61;78.75;99601.56;5124269;28;20043;-94
2022/03/13 03:09:55;;;;;;;11.00;5.90;;;;;;;-1.54;80.21;99616.56;5122398;28;20071;-95
2022/03/13 03:12:21;;;;;;;10.20;5.97;;;;;;;-1.51;79.55;99621.91;5124869;28;20477;-94
2022/03/13 03:14:49;;;;;;;13.15;6.70;;;;;;;-1.70;80.61;99607.34;5124300;28;20040;-95
2022/03/13 03:17:16;;;;;;;14.20;6.32;;;;;;;-1.77;80.88;99601.03;5124511;28;20042;-95
2022/03/13 03:19:42;;;;;;;9.25;6.25;;;;;;;-1.72;81.52;99604.66;5124266;28;20095;-95
2022/03/13 03:22:08;;;;;;;9.77;5.93;;;;;;;-1.77;81.08;99589.72;5124044;28;20073;-94
2022/03/13 03:24:34;;;;;;;10.68;5.97;;;;;;;-1.73;80.60;99596.81;5123112;28;20097;-95
2022/03/13 03:27:00;;;;;;;10.68;6.15;;;;;;;-1.67;79.58;99586.56;5122976;28;20051;-95
2022/03/13 03:29:28;;;;;;;13.75;7.05;;;;;;;-1.64;79.38;99586.69;5121810;28;20042;-94
2022/03/13 03:31:56;;;;;;;11.10;6.22;;;;;;;-1.48;79.09;99586.38;5122734;28;20039;-95
2022/03/13 03:34:24;;;;;;;14.63;7.13;;;;;;;-1.48;78.61;99583.75;5122640;28;20065;-95
2022/03/13 03:36:52;;;;;;;10.30;6.18;;;;;;;-1.31;78.92;99622.59;5123406;28;20040;-95
2022/03/13 03:39:20;;;;;;;10.40;6.68;;;;;;;-1.38;78.01;99590.19;5121820;28;20066;-94
2022/03/13 03:41:47;;;;;;;11.40;6.57;;;;;;;-1.42;78.24;99582.22;5123703;28;20048;-94
2022/03/13 03:44:14;;;;;;;12.05;6.40;;;;;;;-1.48;78.54;99582.88;5125028;28;20040;-94
2022/03/13 03:46:41;;;;;;;14.60;6.75;;;;;;;-1.52;78.19;99591.44;5126452;28;20054;-94
2022/03/13 03:49:09;;;;;;;12.98;6.53;;;;;;;-1.61;79.07;99594.63;5126236;28;20065;-94
2022/03/13 03:51:36;;;;;;;11.70;6.93;;;;;;;-1.66;79.57;99593.56;5124934;28;20046;-95
2022/03/13 03:54:03;;;;;;;12.75;7.10;;;;;;;-1.73;79.27;99599.41;5125235;28;20040;-95
2022/03/13 03:56:29;;;;;;;13.02;6.63;;;;;;;-1.76;80.64;99602.78;5129353;28;20048;-95
2022/03/13 03:58:55;;;;;;;12.98;7.03;;;;;;;-1.79;80.08;99588.78;5130109;28;20064;-95
2022/03/13 04:01:22;;;;;;;13.57;6.75;;;;;;;-1.79;79.77;99593.97;5130021;28;20071;-93
2022/03/13 04:03:49;;;;;;;13.35;7.07;;;;;;;-1.90;80.43;99594.47;5129624;28;20043;-95
2022/03/13 04:06:16;;;;;;;11.32;6.85;;;;;;;-1.98;80.19;99588.09;5129287;28;20043;-95
2022/03/13 04:08:42;;;;;;;13.65;7.28;;;;;;;-2.00;80.97;99594.09;5128444;28;20079;-95
2022/03/13 04:11:09;;;;;;;11.48;6.85;;;;;;;-2.01;81.03;99593.22;5128768;28;20044;-95
2022/03/13 04:13:37;;;;;;;13.30;7.65;;;;;;;-2.01;82.15;99580.19;5128633;28;20056;-94
2022/03/13 04:16:04;;;;;;;11.90;6.53;;;;;;;-2.07;82.51;99580.84;5128752;28;20095;-94
2022/03/13 04:18:30;;;;;;;11.25;6.78;;;;;;;-2.02;82.06;99593.16;5128284;28;20051;-94
2022/03/13 04:20:57;;;;;;;12.88;6.55;;;;;;;-2.12;82.56;99569.38;5128061;28;20065;-94
2022/03/13 04:23:26;;;;;;;13.05;7.03;;;;;;;-2.16;83.20;99577.03;5128007;28;20061;-94
2022/03/13 04:25:52;;;;;;;14.52;6.95;;;;;;;-2.24;83.58;99566.31;5128031;28;20112;-94
2022/03/13 04:28:18;;;;;;;10.50;6.60;;;;;;;-2.22;84.14;99577.66;5128518;28;20127;-95
2022/03/13 04:30:47;;;;;;;13.30;6.90;;;;;;;-2.23;84.50;99577.59;5126816;28;20083;-94
2022/03/13 04:33:16;;;;;;;12.38;6.88;;;;;;;-2.25;84.90;99580.19;5129648;28;20047;-95
2022/03/13 04:35:42;;;;;;;11.65;6.75;;;;;;;-2.22;85.02;99584.59;5128902;28;20044;-95
2022/03/13 04:38:08;;;;;;;13.27;7.28;;;;;;;-2.08;84.48;99588.63;5127881;28;20047;-94
2022/03/13 04:40:36;;;;;;;12.07;7.38;;;;;;;-1.77;82.55;99610.56;5126949;28;20180;-95
2022/03/13 04:43:03;;;;;;;16.95;9.95;;;;;;;-1.88;81.75;99582.38;5127252;28;20050;-95
2022/03/13 04:45:29;;;;;;;15.73;8.88;;;;;;;-1.91;82.05;99577.09;5126568;28;20043;-93
2022/03/13 04:47:55;;;;;;;17.17;8.70;;;;;;;-1.95;81.56;99588.22;5127034;28;20059;-94
2022/03/13 04:50:22;;;;;;;18.60;9.00;;;;;;;-2.05;82.00;99582.63;5127369;28;20043;-95
2022/03/13 04:52:48;;;;;;;16.17;7.85;;;;;;;-2.07;83.10;99580.84;5127361;28;20144;-95
2022/03/13 04:55:15;;;;;;;16.50;8.38;;;;;;;-2.14;81.88;99583.19;5127299;28;20046;-95
2022/03/13 04:57:43;;;;;;;14.95;7.68;;;;;;;-2.19;82.41;99597.72;5126981;28;20059;-94
2022/03/13 05:00:09;;;;;;;13.95;7.53;;;;;;;-2.17;83.02;99610.03;5126714;28;20040;-94
2022/03/13 05:02:36;;;;;;;14.68;8.73;;;;;;;-2.24;83.20;99592.34;5127557;28;20445;-94
2022/03/13 05:05:03;;;;;;;18.90;9.38;;;;;;;-2.35;83.91;99604.97;5128100;28;20425;-95
2022/03/13 05:07:30;;;;;;;17.52;9.85;;;;;;;-2.33;84.34;99616.34;5128556;28;20401;-94
2022/03/13 05:09:58;;;;;;;17.98;9.40;;;;;;;-2.43;84.40;99616.81;5127204;28;20048;-93
2022/03/13 05:12:27;;;;;;;14.65;8.80;;;;;;;-2.43;85.06;99611.59;5126225;28;20067;-95
2022/03/13 05:14:54;;;;;;;18.17;8.75;;;;;;;-2.44;84.42;99612.47;5127499;28;20101;-94
2022/03/13 05:17:21;;;;;;;16.63;8.82;;;;;;;-2.41;84.60;99612.56;5128068;28;20051;-94
2022/03/13 05:19:47;;;;;;;15.82;8.55;;;;;;;-2.36;84.63;99618.84;5128407;28;20156;-94
2022/03/13 05:22:13;;;;;;;14.70;8.90;;;;;;;-2.31;84.47;99627.72;5128162;28;20067;-94
2022/03/13 05:24:39;;;;;;;14.70;8.05;;;;;;;-2.37;83.75;99630.09;5127495;28;20047;-94
2022/03/13 05:27:05;;;;;;;14.98;9.07;;;;;;;-2.34;84.30;99642.34;5127347;28;20044;-93
2022/03/13 05:29:31;;;;;;;13.35;7.00;;;;;;;-2.46;83.89;99621.03;5126916;28;20044;-95
2022/03/13 05:32:00;;;;;;;15.10;7.80;;;;;;;-2.44;84.82;99633.28;5126831;28;20052;-94
2022/03/13 05:34:26;;;;;;;15.02;8.23;;;;;;;-2.49;84.24;99640.06;5127853;28;20444;-93
2022/03/13 05:36:52;;;;;;;16.10;7.68;;;;;;;-2.55;84.57;99632.88;5127126;28;20050;-94
2022/03/13 05:39:19;;;;;;;14.70;7.65;;;;;;;-2.56;86.42;99636.31;5125914;28;20107;-93
2022/03/13 05:41:45;;;;;;;14.32;7.20;;;;;;;-2.49;85.66;99642.66;5125511;28;20063;-95
2022/03/13 05:44:12;;;;;;;19.08;8.65;;;;;;;-2.52;85.74;99639.91;5125633;28;20048;-95
2022/03/13 05:46:39;;;;;;;18.25;7.80;;;;;;;-2.42;86.41;99660.28;5124608;28;20048;-94
2022/03/13 05:49:08;;;;;;;15.43;8.38;;;;;;;-2.41;85.88;99651.63;5124939;28;20040;-94
2022/03/13 05:51:37;;;;;;;16.13;7.35;;;;;;;-2.20;85.33;99668.94;5124595;28;20046;-95
2022/03/13 05:54:03;;;;;;;;;;;;;;;-2.12;84.84;99678.81;5124485;28;20073;-94
2022/03/13 05:56:32;;;;;;;17.02;8.63;;;;;;;-2.30;85.24;99654.66;5125957;28;19903;-94
2022/03/13 05:58:58;;;;;;;17.83;9.13;;;;;;;-2.23;85.14;99658.38;5126635;28;20040;-95
2022/03/13 06:01:24;;;;;;;17.48;9.02;;;;;;;-2.21;85.67;99651.50;5126041;28;20188;-92
2022/03/13 06:03:50;;;;;;;16.77;8.98;;;;;;;-2.15;86.16;99660.44;5124907;28;20075;-95
2022/03/13 06:06:17;;;;;;;16.73;8.63;;;;;;;-1.99;85.29;99663.66;5124180;28;20052;-95
2022/03/13 06:08:43;;;;;;;17.60;8.10;;;;;;;-1.95;84.91;99655.09;5123908;28;20099;-94
2022/03/13 06:11:10;;;;;;;17.40;9.32;;;;;;;-1.92;84.08;99657.81;5125179;28;20047;-94
2022/03/13 06:13:36;;;;;;;21.17;10.23;;;;;;;-1.65;84.30;99673.56;5125388;28;20485;-94
2022/03/13 06:16:03;;;;;;;20.40;10.70;;;;;;;-1.63;83.29;99652.78;5125755;28;20104;-94
2022/03/13 06:18:29;;;;;;;23.60;11.77;;;;;;;-1.52;82.87;99668.00;5125742;28;20115;-95
2022/03/13 06:20:55;;;;;;;33.85;15.70;;;;;;;-1.42;82.37;99668.31;5125423;28;20075;-94
2022/03/13 06:23:23;;;;;;;28.75;14.63;;;;;;;-1.33;82.38;99666.00;5125103;28;20508;-95
2022/03/13 06:25:49;;;;;;;29.42;13.88;;;;;;;-1.21;81.25;99662.91;5124260;28;20046;-94
2022/03/13 06:28:16;;;;;;;23.48;12.10;;;;;;;-1.06;80.27;99664.34;5124675;28;20036;-94
2022/03/13 06:30:43;;;;;;;22.85;11.95;;;;;;;-0.97;79.82;99673.34;5125413;28;20043;-93
2022/03/13 06:33:09;;;;;;;21.88;11.40;;;;;;;-0.88;79.67;99671.03;5124170;28;20633;-95
2022/03/13 06:35:35;;;;;;;19.80;10.68;;;;;;;-0.77;78.78;99680.09;5124305;28;20047;-93
2022/03/13 06:38:00;;;;;;;19.60;10.20;;;;;;;-0.64;78.20;99669.19;5120257;28;20052;-93
2022/03/13 06:40:28;;;;;;;20.13;10.00;;;;;;;-0.46;77.13;99675.84;5119547;28;20507;-94
2022/03/13 06:42:56;;;;;;;20.63;10.32;;;;;;;-0.35;76.40;99682.28;5121963;28;20050;-94
2022/03/13 06:45:22;;;;;;;20.20;10.07;;;;;;;-0.05;76.53;99716.31;5121763;28;20067;-94
2022/03/13 06:47:49;;;;;;;23.55;10.25;;;;;;;-0.14;76.17;99687.28;5119389;28;20142;-94
2022/03/13 06:50:17;;;;;;;21.10;10.55;;;;;;;-0.02;75.28;99678.94;5119364;28;20103;-95
2022/03/13 06:52:44;;;;;;;21.25;10.88;;;;;;;0.10;74.93;99681.91;5119844;28;20046;-94
2022/03/13 06:55:13;;;;;;;22.95;10.18;;;;;;;0.35;73.97;99695.72;5120712;28;20081;-94
2022/03/13 06:57:40;;;;;;;20.90;10.75;;;;;;;0.40;72.79;99684.53;5121145;28;20048;-94
2022/03/13 07:00:08;;;;;;;19.55;9.98;;;;;;;0.54;72.58;99691.88;5122424;28;20048;-95
2022/03/13 07:02:34;;;;;;;20.70;10.88;;;;;;;0.60;72.92;99700.78;5122587;28;20065;-96
2022/03/13 07:05:00;;;;;;;24.17;11.30;;;;;;;0.61;73.05;99689.47;5122020;28;20067;-94
2022/03/13 07:07:26;;;;;;;21.52;11.10;;;;;;;0.90;72.70;99714.69;5122865;28;20050;-95
2022/03/13 07:09:53;;;;;;;21.65;10.85;;;;;;;0.86;71.90;99690.13;5122066;28;20060;-94
2022/03/13 07:12:19;;;;;;;19.67;9.80;;;;;;;1.02;71.35;99694.06;5123471;28;20526;-94
2022/03/13 07:14:47;;;;;;;23.33;11.45;;;;;;;1.14;71.07;99683.88;5124012;28;20044;-94
2022/03/13 07:17:13;;;;;;;21.77;11.32;;;;;;;1.32;69.42;99685.19;5121370;28;20044;-95
2022/03/13 07:19:40;;;;;;;22.33;11.50;;;;;;;1.39;68.99;99690.63;5122667;28;20127;-94
2022/03/13 07:22:07;;;;;;;23.67;11.43;;;;;;;1.54;68.87;99695.34;5122279;28;20043;-95
2022/03/13 07:24:33;;;;;;;23.08;11.48;;;;;;;1.72;68.49;99694.91;5120720;28;20040;-94
2022/03/13 07:26:59;;;;;;;21.27;10.55;;;;;;;1.95;67.23;99707.63;5123416;28;20055;-94
2022/03/13 07:29:25;;;;;;;23.05;11.18;;;;;;;1.98;66.36;99689.38;5123045;28;20059;-95
2022/03/13 07:31:53;;;;;;;27.00;10.40;;;;;;;2.12;66.94;99689.66;5126824;28;20067;-94
2022/03/13 07:34:19;;;;;;;19.38;10.98;;;;;;;2.21;66.19;99688.13;5127341;28;20071;-94
2022/03/13 07:36:45;;;;;;;21.73;11.43;;;;;;;2.38;64.87;99690.19;5126157;28;20112;-95
2022/03/13 07:39:13;;;;;;;23.33;11.63;;;;;;;2.51;64.95;99696.59;5126679;28;20039;-95
2022/03/13 07:41:39;;;;;;;21.77;10.48;;;;;;;2.54;64.98;99681.78;5128962;28;20043;-96
2022/03/13 07:44:05;;;;;;;20.70;11.57;;;;;;;2.63;64.67;99674.09;5128218;28;20499;-95
2022/03/13 07:46:31;;;;;;;24.02;11.55;;;;;;;2.79;64.17;99677.00;5125999;28;20103;-94
2022/03/13 07:48:59;;;;;;;21.98;11.73;;;;;;;2.92;63.32;99681.63;5126900;28;20374;-94
2022/03/13 07:51:25;;;;;;;25.40;11.90;;;;;;;3.05;62.57;99691.50;5130274;28;20054;-94
2022/03/13 07:53:51;;;;;;;24.20;11.82;;;;;;;3.11;63.39;99679.34;5127756;28;20134;-95
2022/03/13 07:56:17;;;;;;;26.88;12.77;;;;;;;3.31;61.65;99680.53;5125613;28;20047;-94
2022/03/13 07:58:43;;;;;;;25.80;12.63;;;;;;;3.56;61.79;99705.50;5128043;28;20084;-94
2022/03/13 08:01:10;;;;;;;26.95;13.23;;;;;;;3.27;61.62;99677.00;5130405;28;20055;-95
2022/03/13 08:03:38;;;;;;;21.13;11.30;;;;;;;3.38;62.35;99684.16;5126377;28;20046;-95
2022/03/13 08:06:06;;;;;;;20.08;11.30;;;;;;;3.47;61.31;99674.69;5126781;28;20565;-95
2022/03/13 08:08:32;;;;;;;47.30;21.95;;;;;;;3.69;61.51;99681.16;5125113;28;20134;-95
2022/03/13 08:11:04;;;;;;;26.45;14.30;;;;;;;3.89;61.10;99678.81;5125029;28;20078;-94
2022/03/13 08:13:31;;;;;;;26.00;13.35;;;;;;;4.08;60.26;99673.84;5126611;28;20052;-94
2022/03/13 08:15:58;;;;;;;36.35;18.88;;;;;;;4.24;60.08;99675.78;5126927;28;20061;-94
2022/03/13 08:18:24;;;;;;;64.25;34.03;;;;;;;4.30;59.44;99675.00;5126406;28;20135;-94
2022/03/13 08:20:50;;;;;;;69.53;37.78;;;;;;;4.52;59.30;99707.75;5124786;28;20055;-94
2022/03/13 08:23:18;;;;;;;147.77;61.13;;;;;;;3.93;60.18;99669.25;5125741;28;20039;-93
2022/03/13 08:25:44;;;;;;;133.32;56.53;;;;;;;3.93;60.43;99678.88;5127275;28;20047;-94
2022/03/13 08:28:10;;;;;;;185.20;70.80;;;;;;;3.98;60.67;99683.34;5126730;28;20043;-94
2022/03/13 08:30:36;;;;;;;185.35;91.82;;;;;;;4.16;60.21;99687.94;5126454;28;20044;-94
2022/03/13 08:43:18;;;;;;;26.73;12.88;;;;;;;5.45;55.87;99667.38;5124216;28;20057;-94
2022/03/13 08:49:09;;;;;;;28.00;14.35;;;;;;;5.41;54.67;99668.22;5120059;28;20043;-94
2022/03/13 08:51:35;;;;;;;56.97;34.15;;;;;;;5.17;55.85;99676.81;5087168;28;20048;-95
2022/03/13 08:54:01;;;;;;;37.00;18.55;;;;;;;5.44;55.95;99686.72;5086306;28;20068;-94
2022/03/13 08:56:27;;;;;;;53.90;33.33;;;;;;;5.73;55.80;99689.59;5086559;28;20183;-93
2022/03/13 08:58:55;;;;;;;25.63;14.05;;;;;;;6.07;54.44;99682.81;5105276;28;20044;-95
2022/03/13 09:01:25;;;;;;;26.60;13.35;;;;;;;6.22;53.85;99667.91;5106469;28;20044;-94
2022/03/13 09:03:51;;;;;;;25.65;13.93;;;;;;;6.64;52.70;99693.63;5105471;28;20098;-93
2022/03/13 09:06:17;;;;;;;28.90;14.70;;;;;;;6.61;52.28;99667.19;5106288;28;20044;-94
2022/03/13 09:08:43;;;;;;;25.85;14.50;;;;;;;6.81;52.08;99661.06;5108036;28;20070;-95
2022/03/13 09:11:12;;;;;;;22.90;12.50;;;;;;;6.95;51.58;99669.94;5107974;28;20097;-93
2022/03/13 09:13:58;;;;;;;23.60;13.65;;;;;;;7.16;50.62;99683.19;5106779;28;20063;-94
2022/03/13 09:16:26;;;;;;;22.08;12.02;;;;;;;7.14;49.58;99666.44;5106987;28;20048;-94
2022/03/13 09:18:53;;;;;;;25.85;11.18;;;;;;;7.18;49.36;99654.09;5108993;28;20071;-95
2022/03/13 09:21:19;;;;;;;25.33;13.85;;;;;;;7.04;49.98;99661.13;5107827;28;20054;-94
2022/03/13 09:23:45;;;;;;;20.15;11.90;;;;;;;7.22;49.58;99668.19;5108374;28;20070;-95
2022/03/13 09:26:11;;;;;;;18.63;11.23;;;;;;;7.38;49.02;99669.97;5105159;28;20193;-94
2022/03/13 09:28:38;;;;;;;20.35;11.60;;;;;;;7.53;48.43;99656.75;5107942;28;20055;-95
2022/03/13 09:31:06;;;;;;;19.00;10.10;;;;;;;7.93;47.78;99688.47;5108967;28;20382;-96
2022/03/13 09:33:33;;;;;;;19.00;10.10;;;;;;;8.00;47.75;99679.63;5108294;28;20044;-94
2022/03/13 09:36:01;;;;;;;19.30;11.35;;;;;;;7.90;47.20;99651.41;5109049;28;20051;-96
2022/03/13 09:38:27;;;;;;;19.02;10.50;;;;;;;7.85;46.53;99650.53;5108718;28;20052;-94
2022/03/13 09:40:55;;;;;;;15.52;9.70;;;;;;;8.04;47.05;99669.91;5106444;28;20040;-93
2022/03/13 09:51:14;;;;;;;19.23;10.73;;;;;;;8.47;46.05;99661.84;5666114;23;20054;-94
2022/03/13 09:53:40;;;;;;;22.23;11.30;;;;;;;8.31;45.93;99653.03;5006385;28;20042;-93
2022/03/13 09:58:43;;;;;;;20.42;10.60;;;;;;;8.68;46.37;99666.19;5027662;23;20050;-93
2022/03/13 10:01:12;;;;;;;18.33;10.90;;;;;;;8.71;46.08;99639.63;5024691;28;20046;-94
2022/03/13 10:03:38;;;;;;;19.63;11.43;;;;;;;8.88;46.06;99641.31;5025466;28;20082;-94
2022/03/13 10:06:10;;;;;;;21.77;15.75;;;;;;;8.88;45.46;99658.09;5026184;28;20049;-93
2022/03/13 10:08:42;;;;;;;20.35;12.60;;;;;;;8.81;46.27;99674.94;5027191;28;20064;-94
2022/03/13 10:11:08;;;;;;;19.52;10.68;;;;;;;8.68;46.50;99644.97;5023543;28;20092;-94
2022/03/13 10:13:37;;;;;;;21.38;11.43;;;;;;;8.95;46.79;99640.38;5026353;28;20046;-94
2022/03/13 10:16:04;;;;;;;20.75;11.23;;;;;;;9.02;46.00;99632.38;5025355;28;20054;-96
2022/03/13 10:18:31;;;;;;;21.70;11.32;;;;;;;9.00;46.21;99625.28;5026361;28;20113;-94
2022/03/13 10:21:05;;;;;;;20.90;11.57;;;;;;;9.13;46.58;99637.59;5026505;28;20053;-95
2022/03/13 10:23:31;;;;;;;21.65;12.13;;;;;;;9.29;46.97;99648.09;5027040;28;20133;-93
2022/03/13 10:25:59;;;;;;;20.25;10.75;;;;;;;9.48;46.32;99654.13;5026350;28;20046;-93
2022/03/13 10:28:30;;;;;;;19.60;10.73;;;;;;;9.17;47.37;99620.78;5027029;28;20499;-94
2022/03/13 10:31:13;;;;;;;20.70;11.70;;;;;;;8.38;49.56;99622.97;5025659;28;20101;-93
2022/03/13 10:33:58;;;;;;;21.23;11.27;;;;;;;8.45;50.90;99621.22;5025867;28;20081;-94
2022/03/13 10:36:34;;;;;;;25.60;11.00;;;;;;;8.78;50.61;99614.84;5024317;28;20077;-95
2022/03/13 10:39:03;;;;;;;22.70;11.05;;;;;;;9.05;48.60;99605.81;5024185;28;20065;-95
2022/03/13 10:41:45;;;;;;;20.33;11.00;;;;;;;9.23;48.54;99606.56;5026641;28;20046;-94
2022/03/13 10:44:14;;;;;;;20.13;11.77;;;;;;;9.42;48.58;99592.22;5026711;28;20047;-94
2022/03/13 10:46:42;;;;;;;25.87;11.27;;;;;;;9.75;47.85;99615.81;5024728;28;20069;-94
2022/03/13 10:49:09;;;;;;;17.25;10.40;;;;;;;9.76;47.28;99599.88;5026519;28;20137;-95
2022/03/13 10:51:37;;;;;;;25.42;10.35;;;;;;;9.84;46.74;99594.47;5026597;28;20069;-93
2022/03/13 10:54:04;;;;;;;18.80;10.40;;;;;;;9.93;46.01;99599.72;5024414;28;20192;-94
2022/03/13 10:56:30;;;;;;;22.73;10.90;;;;;;;10.01;45.04;99605.78;5022668;28;20046;-94
2022/03/13 10:58:59;;;;;;;22.73;10.82;;;;;;;9.63;46.19;99583.19;5023752;28;20041;-93
2022/03/13 11:01:28;;;;;;;21.70;12.80;;;;;;;9.74;46.18;99596.34;5023046;28;20042;-96
2022/03/13 11:03:55;;;;;;;22.05;10.88;;;;;;;9.71;45.83;99588.41;5022930;28;20045;-94
2022/03/13 11:06:22;;;;;;;21.15;10.10;;;;;;;9.69;45.58;99581.34;5022749;28;20049;-94
2022/03/13 11:08:53;;;;;;;18.35;10.20;;;;;;;9.81;44.62;99570.59;5023521;28;20038;-94
2022/03/13 11:11:19;;;;;;;97.20;42.35;;;;;;;9.80;45.76;99577.72;5024908;28;20049;-95
2022/03/13 11:13:49;;;;;;;31.30;15.20;;;;;;;9.84;44.25;99567.91;5023607;28;20074;-92
2022/03/13 11:16:22;;;;;;;28.40;14.30;;;;;;;9.94;43.92;99590.81;5022376;28;20057;-96
2022/03/13 11:18:51;;;;;;;17.88;9.88;;;;;;;9.89;44.16;99568.75;5023899;28;20050;-93
2022/03/13 11:21:17;;;;;;;;;;;;;;;9.94;42.92;99569.56;5023051;28;20045;-94
2022/03/13 11:23:43;;;;;;;17.88;9.30;;;;;;;9.98;43.50;99562.44;5022505;28;19963;-94
2022/03/13 11:26:14;;;;;;;28.15;17.88;;;;;;;10.04;43.16;99555.28;5022996;28;20049;-95
2022/03/13 11:28:42;;;;;;;20.23;9.52;;;;;;;10.01;42.73;99542.00;5006052;28;20038;-94
2022/03/13 11:31:32;;;;;;;20.63;13.93;;;;;;;10.08;43.21;99553.44;5005459;28;20047;-95
2022/03/13 11:34:13;;;;;;;18.13;10.93;;;;;;;10.13;42.95;99551.63;5005296;28;20153;-95
2022/03/13 11:36:43;;;;;;;18.83;10.75;;;;;;;10.31;43.07;99579.78;5006665;28;20050;-94
2022/03/13 11:39:10;;;;;;;14.38;9.43;;;;;;;10.15;43.23;99538.28;5014871;28;20068;-94
2022/03/13 11:41:41;;;;;;;19.55;9.73;;;;;;;10.20;43.23;99533.81;5021460;28;20143;-94
2022/03/13 11:44:43;;;;;;;19.70;9.63;;;;;;;10.51;42.52;99568.88;5005048;28;20042;-94
2022/03/13 11:47:22;;;;;;;18.38;9.73;;;;;;;10.50;43.18;99537.00;5013654;28;20053;-93
2022/03/13 11:49:49;;;;;;;19.42;10.07;;;;;;;10.65;42.62;99547.41;5025278;28;20046;-96
2022/03/13 11:52:30;;;;;;;20.83;11.07;;;;;;;10.56;41.52;99535.13;5023385;28;20050;-95